createdAt,value
2022-08-20T00:00:10.481Z,1008.31
2022-08-20T00:01:10.469Z,1008.23
2022-08-20T00:02:10.542Z,1008.27
2022-08-20T00:03:10.450Z,1008.28
2022-08-20T00:04:10.442Z,1008.25
2022-08-20T00:05:10.424Z,1008.29
2022-08-20T00:06:10.415Z,1008.32
2022-08-20T00:07:10.401Z,1008.31
2022-08-20T00:08:10.392Z,1008.34
2022-08-20T00:09:10.382Z,1008.39
2022-08-20T00:10:10.375Z,1008.39
2022-08-20T00:11:10.359Z,1008.38
2022-08-20T00:12:10.347Z,1008.38
2022-08-20T00:13:10.337Z,1008.41
2022-08-20T00:14:10.325Z,1008.36
2022-08-20T00:15:10.315Z,1008.41
2022-08-20T00:16:10.310Z,1008.39
2022-08-20T00:17:10.291Z,1008.41
2022-08-20T00:18:10.281Z,1008.44
2022-08-20T00:19:10.271Z,1008.44
2022-08-20T00:20:10.258Z,1008.46
2022-08-20T00:21:10.248Z,1008.47
2022-08-20T00:22:10.244Z,1008.53
2022-08-20T00:23:10.694Z,1008.52
2022-08-20T00:24:10.215Z,1008.50
2022-08-20T00:25:10.203Z,1008.57
2022-08-20T00:26:10.195Z,1008.57
2022-08-20T00:27:10.183Z,1008.56
2022-08-20T00:28:10.201Z,1008.54
2022-08-20T00:29:10.160Z,1008.53
2022-08-20T00:30:10.149Z,1008.54
2022-08-20T00:31:10.138Z,1008.54
2022-08-20T00:32:10.126Z,1008.54
2022-08-20T00:33:10.115Z,1008.50
2022-08-20T00:34:10.136Z,1008.51
2022-08-20T00:35:10.093Z,1008.49
2022-08-20T00:36:10.082Z,1008.47
2022-08-20T00:37:10.072Z,1008.49
2022-08-20T00:38:10.064Z,1008.46
2022-08-20T00:39:10.049Z,1008.45
2022-08-20T00:40:22.503Z,1008.44
2022-08-20T00:41:11.029Z,1008.43
2022-08-20T00:42:10.018Z,1008.42
2022-08-20T00:43:10.005Z,1008.41
2022-08-20T00:44:09.996Z,1008.47
2022-08-20T00:45:09.987Z,1008.49
2022-08-20T00:46:09.978Z,1008.47
2022-08-20T00:47:09.961Z,1008.52
2022-08-20T00:48:09.950Z,1008.48
2022-08-20T00:49:09.940Z,1008.48
2022-08-20T00:50:09.927Z,1008.51
2022-08-20T00:51:09.916Z,1008.53
2022-08-20T00:52:09.911Z,1008.48
2022-08-20T00:53:09.895Z,1008.53
2022-08-20T00:54:09.883Z,1008.49
2022-08-20T00:55:09.872Z,1008.51
2022-08-20T00:56:09.862Z,1008.50
2022-08-20T00:57:09.852Z,1008.49
2022-08-20T00:58:09.868Z,1008.50
2022-08-20T00:59:09.829Z,1008.49
2022-08-20T01:00:09.817Z,1008.48
2022-08-20T01:01:09.808Z,1008.48
2022-08-20T01:02:09.824Z,1008.51
2022-08-20T01:03:09.982Z,1008.53
2022-08-20T01:04:09.805Z,1008.54
2022-08-20T01:05:09.763Z,1008.52
2022-08-20T01:06:09.750Z,1008.52
2022-08-20T01:07:09.741Z,1008.53
2022-08-20T01:08:09.728Z,1008.54
2022-08-20T01:09:09.718Z,1008.54
2022-08-20T01:10:09.726Z,1008.51
2022-08-20T01:11:09.695Z,1008.52
2022-08-20T01:12:09.688Z,1008.55
2022-08-20T01:13:09.677Z,1008.52
2022-08-20T01:14:09.662Z,1008.54
2022-08-20T01:15:09.651Z,1008.56
2022-08-20T01:16:09.647Z,1008.58
2022-08-20T01:17:09.647Z,1008.58
2022-08-20T01:18:09.622Z,1008.57
2022-08-20T01:19:29.476Z,1008.59
2022-08-20T01:20:10.598Z,1008.59
2022-08-20T01:21:09.585Z,1008.58
2022-08-20T01:22:09.583Z,1008.60
2022-08-20T01:23:09.564Z,1008.58
2022-08-20T01:24:09.554Z,1008.57
2022-08-20T01:25:09.544Z,1008.52
2022-08-20T01:26:09.530Z,1008.51
2022-08-20T01:27:09.520Z,1008.51
2022-08-20T01:28:09.516Z,1008.52
2022-08-20T01:29:09.497Z,1008.53
2022-08-20T01:30:09.486Z,1008.60
2022-08-20T01:31:09.477Z,1008.58
2022-08-20T01:32:09.465Z,1008.55
2022-08-20T01:33:09.452Z,1008.61
2022-08-20T01:34:09.464Z,1008.62
2022-08-20T01:35:09.432Z,1008.62
2022-08-20T01:36:09.420Z,1008.61
2022-08-20T01:37:09.409Z,1008.62
2022-08-20T01:38:09.398Z,1008.61
2022-08-20T01:39:09.390Z,1008.57
2022-08-20T01:40:09.518Z,1008.61
2022-08-20T01:41:09.365Z,1008.54
2022-08-20T01:42:09.356Z,1008.56
2022-08-20T01:43:09.764Z,1008.62
2022-08-20T01:44:09.331Z,1008.57
2022-08-20T01:45:10.336Z,1008.59
2022-08-20T01:46:09.309Z,1008.59
2022-08-20T01:47:09.300Z,1008.56
2022-08-20T01:48:09.579Z,1008.61
2022-08-20T01:49:13.476Z,1008.60
2022-08-20T01:50:09.266Z,1008.57
2022-08-20T01:51:09.262Z,1008.59
2022-08-20T01:52:09.246Z,1008.60
2022-08-20T01:53:09.232Z,1008.62
2022-08-20T01:54:09.221Z,1008.58
2022-08-20T01:55:09.210Z,1008.60
2022-08-20T01:56:09.199Z,1008.57
2022-08-20T01:57:09.195Z,1008.57
2022-08-20T01:58:09.177Z,1008.58
2022-08-20T01:59:09.166Z,1008.57
2022-08-20T02:00:09.155Z,1008.60
2022-08-20T02:01:10.179Z,1008.59
2022-08-20T02:02:09.133Z,1008.56
2022-08-20T02:03:09.128Z,1008.60
2022-08-20T02:04:09.110Z,1008.62
2022-08-20T02:05:10.098Z,1008.62
2022-08-20T02:06:09.092Z,1008.64
2022-08-20T02:07:09.079Z,1008.63
2022-08-20T02:08:09.067Z,1008.65
2022-08-20T02:09:12.133Z,1008.63
2022-08-20T02:10:10.043Z,1008.64
2022-08-20T02:11:09.033Z,1008.63
2022-08-20T02:12:09.022Z,1008.63
2022-08-20T02:13:09.013Z,1008.62
2022-08-20T02:14:09.000Z,1008.60
2022-08-20T02:15:08.995Z,1008.64
2022-08-20T02:16:08.978Z,1008.67
2022-08-20T02:17:08.966Z,1008.71
2022-08-20T02:18:08.955Z,1008.72
2022-08-20T02:19:08.945Z,1008.75
2022-08-20T02:20:08.936Z,1008.77
2022-08-20T02:21:08.927Z,1008.79
2022-08-20T02:22:08.912Z,1008.80
2022-08-20T02:23:08.901Z,1008.84
2022-08-20T02:24:08.890Z,1008.85
2022-08-20T02:25:08.884Z,1008.83
2022-08-20T02:26:08.869Z,1008.85
2022-08-20T02:27:08.865Z,1008.86
2022-08-20T02:28:08.845Z,1008.83
2022-08-20T02:29:08.835Z,1008.87
2022-08-20T02:30:08.823Z,1008.83
2022-08-20T02:31:08.813Z,1008.86
2022-08-20T02:32:32.270Z,1008.84
2022-08-20T02:33:09.798Z,1008.84
2022-08-20T02:34:18.475Z,1008.84
2022-08-20T02:35:09.767Z,1008.86
2022-08-20T02:36:08.760Z,1008.89
2022-08-20T02:37:08.748Z,1008.97
2022-08-20T02:38:08.737Z,1008.96
2022-08-20T02:39:08.731Z,1008.92
2022-08-20T02:40:08.819Z,1008.95
2022-08-20T02:41:08.703Z,1008.95
2022-08-20T02:42:08.691Z,1008.96
2022-08-20T02:43:08.682Z,1008.97
2022-08-20T02:44:08.669Z,1008.99
2022-08-20T02:45:08.704Z,1008.97
2022-08-20T02:46:09.646Z,1008.99
2022-08-20T02:47:08.637Z,1009.01
2022-08-20T02:48:08.626Z,1008.96
2022-08-20T02:49:08.614Z,1008.97
2022-08-20T02:50:08.603Z,1008.95
2022-08-20T02:51:08.608Z,1008.96
2022-08-20T02:52:08.582Z,1008.93
2022-08-20T02:53:08.584Z,1008.91
2022-08-20T02:54:08.559Z,1008.88
2022-08-20T02:55:08.551Z,1008.86
2022-08-20T02:56:09.557Z,1008.84
2022-08-20T02:57:08.528Z,1008.88
2022-08-20T02:58:08.516Z,1008.83
2022-08-20T02:59:08.503Z,1008.83
2022-08-20T03:00:08.494Z,1008.82
2022-08-20T03:01:08.519Z,1008.81
2022-08-20T03:02:08.482Z,1008.80
2022-08-20T03:03:08.459Z,1008.77
2022-08-20T03:04:08.451Z,1008.79
2022-08-20T03:05:08.437Z,1008.77
2022-08-20T03:06:08.428Z,1008.71
2022-08-20T03:07:08.418Z,1008.76
2022-08-20T03:08:08.430Z,1008.73
2022-08-20T03:09:08.394Z,1008.73
2022-08-20T03:10:08.383Z,1008.71
2022-08-20T03:11:08.372Z,1008.67
2022-08-20T03:12:08.361Z,1008.69
2022-08-20T03:13:08.351Z,1008.66
2022-08-20T03:14:08.344Z,1008.71
2022-08-20T03:15:08.327Z,1008.70
2022-08-20T03:16:09.318Z,1008.70
2022-08-20T03:17:08.307Z,1008.72
2022-08-20T03:18:08.296Z,1008.74
2022-08-20T03:19:08.284Z,1008.73
2022-08-20T03:20:08.303Z,1008.75
2022-08-20T03:21:09.937Z,1008.72
2022-08-20T03:22:08.250Z,1008.70
2022-08-20T03:23:08.238Z,1008.65
2022-08-20T03:24:08.230Z,1008.70
2022-08-20T03:25:08.217Z,1008.66
2022-08-20T03:26:08.221Z,1008.70
2022-08-20T03:27:08.195Z,1008.64
2022-08-20T03:28:08.185Z,1008.68
2022-08-20T03:29:08.174Z,1008.67
2022-08-20T03:30:08.163Z,1008.66
2022-08-20T03:31:08.151Z,1008.63
2022-08-20T03:32:08.146Z,1008.64
2022-08-20T03:33:08.129Z,1008.67
2022-08-20T03:34:08.117Z,1008.62
2022-08-20T03:35:08.108Z,1008.63
2022-08-20T03:36:08.096Z,1008.65
2022-08-20T03:37:08.085Z,1008.63
2022-08-20T03:38:08.083Z,1008.60
2022-08-20T03:39:08.062Z,1008.59
2022-08-20T03:40:08.092Z,1008.61
2022-08-20T03:41:08.041Z,1008.60
2022-08-20T03:42:08.032Z,1008.62
2022-08-20T03:43:08.018Z,1008.58
2022-08-20T03:44:08.014Z,1008.59
2022-08-20T03:45:07.997Z,1008.58
2022-08-20T03:46:23.142Z,1008.57
2022-08-20T03:47:08.973Z,1008.58
2022-08-20T03:48:07.962Z,1008.60
2022-08-20T03:49:07.952Z,1008.65
2022-08-20T03:50:08.486Z,1008.64
2022-08-20T03:51:07.930Z,1008.65
2022-08-20T03:52:07.919Z,1008.66
2022-08-20T03:53:07.908Z,1008.61
2022-08-20T03:54:08.897Z,1008.58
2022-08-20T03:55:07.885Z,1008.60
2022-08-20T03:56:07.881Z,1008.58
2022-08-20T03:57:12.628Z,1008.63
2022-08-20T03:58:08.852Z,1008.64
2022-08-20T03:59:07.843Z,1008.64
2022-08-20T04:00:07.830Z,1008.63
2022-08-20T04:01:07.920Z,1008.65
2022-08-20T04:02:08.845Z,1008.68
2022-08-20T04:03:07.798Z,1008.69
2022-08-20T04:04:12.081Z,1008.73
2022-08-20T04:05:07.779Z,1008.71
2022-08-20T04:06:07.763Z,1008.76
2022-08-20T04:07:07.753Z,1008.76
2022-08-20T04:08:07.747Z,1008.77
2022-08-20T04:09:07.731Z,1008.78
2022-08-20T04:10:07.721Z,1008.81
2022-08-20T04:11:07.709Z,1008.86
2022-08-20T04:12:07.698Z,1008.81
2022-08-20T04:13:07.687Z,1008.79
2022-08-20T04:14:07.688Z,1008.83
2022-08-20T04:15:07.664Z,1008.82
2022-08-20T04:16:07.654Z,1008.82
2022-08-20T04:17:07.643Z,1008.83
2022-08-20T04:18:07.631Z,1008.83
2022-08-20T04:19:07.619Z,1008.80
2022-08-20T04:20:07.617Z,1008.85
2022-08-20T04:21:07.598Z,1008.82
2022-08-20T04:22:07.587Z,1008.81
2022-08-20T04:23:07.577Z,1008.84
2022-08-20T04:24:07.566Z,1008.79
2022-08-20T04:25:08.584Z,1008.80
2022-08-20T04:26:07.544Z,1008.82
2022-08-20T04:27:07.532Z,1008.80
2022-08-20T04:28:07.521Z,1008.77
2022-08-20T04:29:07.510Z,1008.73
2022-08-20T04:30:07.500Z,1008.71
2022-08-20T04:31:07.510Z,1008.72
2022-08-20T04:32:07.477Z,1008.70
2022-08-20T04:33:07.497Z,1008.70
2022-08-20T04:34:07.455Z,1008.68
2022-08-20T04:35:07.444Z,1008.66
2022-08-20T04:36:07.433Z,1008.68
2022-08-20T04:37:16.588Z,1008.66
2022-08-20T04:38:08.410Z,1008.65
2022-08-20T04:39:07.400Z,1008.69
2022-08-20T04:40:07.450Z,1008.70
2022-08-20T04:41:07.379Z,1008.67
2022-08-20T04:42:08.373Z,1008.70
2022-08-20T04:43:07.355Z,1008.69
2022-08-20T04:44:07.347Z,1008.71
2022-08-20T04:45:07.333Z,1008.69
2022-08-20T04:46:07.324Z,1008.72
2022-08-20T04:47:07.316Z,1008.71
2022-08-20T04:48:10.593Z,1008.75
2022-08-20T04:49:08.288Z,1008.76
2022-08-20T04:50:07.280Z,1008.76
2022-08-20T04:51:07.267Z,1008.79
2022-08-20T04:52:07.258Z,1008.78
2022-08-20T04:53:07.253Z,1008.80
2022-08-20T04:54:07.733Z,1008.81
2022-08-20T04:55:07.223Z,1008.78
2022-08-20T04:56:07.212Z,1008.87
2022-08-20T04:57:07.201Z,1008.83
2022-08-20T04:58:07.190Z,1008.83
2022-08-20T04:59:07.179Z,1008.82
2022-08-20T05:00:07.202Z,1008.85
2022-08-20T05:01:07.205Z,1008.86
2022-08-20T05:02:07.147Z,1008.84
2022-08-20T05:03:07.141Z,1008.90
2022-08-20T05:04:07.125Z,1008.88
2022-08-20T05:05:07.113Z,1008.93
2022-08-20T05:06:07.117Z,1008.95
2022-08-20T05:07:07.091Z,1008.92
2022-08-20T05:08:07.080Z,1008.96
2022-08-20T05:09:08.068Z,1008.98
2022-08-20T05:10:07.059Z,1008.95
2022-08-20T05:11:33.773Z,1009.03
2022-08-20T05:12:08.058Z,1009.03
2022-08-20T05:13:07.026Z,1009.03
2022-08-20T05:14:07.956Z,1009.07
2022-08-20T05:15:07.005Z,1009.06
2022-08-20T05:16:06.993Z,1009.10
2022-08-20T05:17:06.981Z,1009.09
2022-08-20T05:18:06.978Z,1009.09
2022-08-20T05:19:07.006Z,1009.06
2022-08-20T05:20:06.954Z,1009.06
2022-08-20T05:21:06.938Z,1008.99
2022-08-20T05:22:06.926Z,1008.97
2022-08-20T05:23:06.915Z,1009.00
2022-08-20T05:24:06.909Z,1008.95
2022-08-20T05:25:06.892Z,1008.95
2022-08-20T05:26:06.882Z,1008.96
2022-08-20T05:27:06.871Z,1008.96
2022-08-20T05:28:06.860Z,1008.98
2022-08-20T05:29:06.933Z,1009.01
2022-08-20T05:30:06.845Z,1009.00
2022-08-20T05:31:06.829Z,1009.06
2022-08-20T05:32:06.816Z,1009.12
2022-08-20T05:33:06.807Z,1009.13
2022-08-20T05:34:06.802Z,1009.13
2022-08-20T05:35:06.787Z,1009.21
2022-08-20T05:36:06.810Z,1009.20
2022-08-20T05:37:07.735Z,1009.20
2022-08-20T05:38:06.752Z,1009.17
2022-08-20T05:39:06.738Z,1009.20
2022-08-20T05:40:06.760Z,1009.20
2022-08-20T05:41:06.716Z,1009.17
2022-08-20T05:42:06.721Z,1009.16
2022-08-20T05:43:06.694Z,1009.17
2022-08-20T05:44:06.682Z,1009.18
2022-08-20T05:45:11.054Z,1009.19
2022-08-20T05:46:06.662Z,1009.20
2022-08-20T05:47:06.650Z,1009.17
2022-08-20T05:48:06.651Z,1009.19
2022-08-20T05:49:06.627Z,1009.24
2022-08-20T05:50:06.617Z,1009.21
2022-08-20T05:51:06.607Z,1009.24
2022-08-20T05:52:06.594Z,1009.25
2022-08-20T05:53:06.583Z,1009.23
2022-08-20T05:54:06.578Z,1009.33
2022-08-20T05:55:06.562Z,1009.31
2022-08-20T05:56:06.550Z,1009.34
2022-08-20T05:57:06.539Z,1009.34
2022-08-20T05:58:06.529Z,1009.33
2022-08-20T05:59:06.517Z,1009.30
2022-08-20T06:00:06.529Z,1009.32
2022-08-20T06:01:06.534Z,1009.27
2022-08-20T06:02:06.484Z,1009.30
2022-08-20T06:03:06.474Z,1009.22
2022-08-20T06:04:06.463Z,1009.27
2022-08-20T06:05:06.455Z,1009.27
2022-08-20T06:06:18.191Z,1009.30
2022-08-20T06:07:07.427Z,1009.34
2022-08-20T06:08:07.331Z,1009.31
2022-08-20T06:09:06.407Z,1009.32
2022-08-20T06:10:06.401Z,1009.37
2022-08-20T06:11:06.385Z,1009.35
2022-08-20T06:12:06.432Z,1009.36
2022-08-20T06:13:06.370Z,1009.38
2022-08-20T06:14:06.353Z,1009.38
2022-08-20T06:15:06.340Z,1009.38
2022-08-20T06:16:06.928Z,1009.38
2022-08-20T06:17:06.322Z,1009.39
2022-08-20T06:18:10.103Z,1009.41
2022-08-20T06:19:11.415Z,1009.40
2022-08-20T06:20:06.285Z,1009.41
2022-08-20T06:21:06.275Z,1009.44
2022-08-20T06:22:18.386Z,1009.41
2022-08-20T06:23:07.268Z,1009.41
2022-08-20T06:24:06.241Z,1009.41
2022-08-20T06:25:06.230Z,1009.40
2022-08-20T06:26:06.219Z,1009.39
2022-08-20T06:27:06.208Z,1009.38
2022-08-20T06:28:06.197Z,1009.38
2022-08-20T06:29:06.192Z,1009.37
2022-08-20T06:30:06.174Z,1009.36
2022-08-20T06:31:06.165Z,1009.39
2022-08-20T06:32:06.153Z,1009.43
2022-08-20T06:33:06.141Z,1009.36
2022-08-20T06:34:06.131Z,1009.42
2022-08-20T06:35:06.126Z,1009.37
2022-08-20T06:36:06.112Z,1009.38
2022-08-20T06:37:06.101Z,1009.37
2022-08-20T06:38:06.091Z,1009.37
2022-08-20T06:39:06.076Z,1009.37
2022-08-20T06:40:06.163Z,1009.38
2022-08-20T06:41:06.060Z,1009.37
2022-08-20T06:42:06.043Z,1009.41
2022-08-20T06:43:06.032Z,1009.41
2022-08-20T06:44:06.023Z,1009.40
2022-08-20T06:45:06.011Z,1009.43
2022-08-20T06:46:05.999Z,1009.44
2022-08-20T06:47:06.019Z,1009.45
2022-08-20T06:48:05.978Z,1009.48
2022-08-20T06:49:05.966Z,1009.52
2022-08-20T06:50:05.955Z,1009.48
2022-08-20T06:51:05.944Z,1009.54
2022-08-20T06:52:05.937Z,1009.56
2022-08-20T06:53:06.099Z,1009.54
2022-08-20T06:54:05.912Z,1009.48
2022-08-20T06:55:05.899Z,1009.56
2022-08-20T06:56:05.889Z,1009.55
2022-08-20T06:57:05.878Z,1009.53
2022-08-20T06:58:05.873Z,1009.53
2022-08-20T06:59:05.864Z,1009.50
2022-08-20T07:00:05.846Z,1009.54
2022-08-20T07:01:09.036Z,1009.56
2022-08-20T07:02:05.830Z,1009.55
2022-08-20T07:03:05.812Z,1009.56
2022-08-20T07:04:05.807Z,1009.60
2022-08-20T07:05:05.811Z,1009.60
2022-08-20T07:06:05.780Z,1009.58
2022-08-20T07:07:05.768Z,1009.58
2022-08-20T07:08:05.758Z,1009.61
2022-08-20T07:09:05.748Z,1009.62
2022-08-20T07:10:05.737Z,1009.63
2022-08-20T07:11:05.737Z,1009.65
2022-08-20T07:12:05.714Z,1009.64
2022-08-20T07:13:05.702Z,1009.65
2022-08-20T07:14:05.696Z,1009.70
2022-08-20T07:15:05.682Z,1009.69
2022-08-20T07:16:05.674Z,1009.71
2022-08-20T07:17:05.665Z,1009.74
2022-08-20T07:18:06.650Z,1009.75
2022-08-20T07:19:05.637Z,1009.76
2022-08-20T07:20:05.625Z,1009.79
2022-08-20T07:21:05.633Z,1009.82
2022-08-20T07:22:05.605Z,1009.79
2022-08-20T07:23:05.611Z,1009.79
2022-08-20T07:24:05.605Z,1009.85
2022-08-20T07:25:05.572Z,1009.87
2022-08-20T07:26:05.559Z,1009.83
2022-08-20T07:27:05.560Z,1009.84
2022-08-20T07:28:05.540Z,1009.85
2022-08-20T07:29:05.557Z,1009.85
2022-08-20T07:30:05.515Z,1009.86
2022-08-20T07:31:13.587Z,1009.91
2022-08-20T07:32:06.492Z,1009.92
2022-08-20T07:33:06.813Z,1009.93
2022-08-20T07:34:05.470Z,1009.94
2022-08-20T07:35:05.468Z,1009.92
2022-08-20T07:36:05.449Z,1009.94
2022-08-20T07:37:05.437Z,1009.97
2022-08-20T07:38:05.429Z,1009.96
2022-08-20T07:39:05.906Z,1009.98
2022-08-20T07:40:05.465Z,1009.99
2022-08-20T07:41:05.403Z,1009.97
2022-08-20T07:42:05.382Z,1010.00
2022-08-20T07:43:05.371Z,1009.92
2022-08-20T07:44:05.360Z,1009.97
2022-08-20T07:45:05.350Z,1009.99
2022-08-20T07:46:05.340Z,1009.94
2022-08-20T07:47:05.333Z,1009.98
2022-08-20T07:48:05.317Z,1009.93
2022-08-20T07:49:05.306Z,1009.96
2022-08-20T07:50:05.297Z,1009.96
2022-08-20T07:51:05.286Z,1009.94
2022-08-20T07:52:05.286Z,1009.98
2022-08-20T07:53:05.267Z,1009.91
2022-08-20T07:54:05.250Z,1009.93
2022-08-20T07:55:05.239Z,1009.92
2022-08-20T07:56:05.229Z,1009.95
2022-08-20T07:57:05.478Z,1009.97
2022-08-20T07:58:05.206Z,1009.90
2022-08-20T07:59:05.224Z,1009.88
2022-08-20T08:00:05.185Z,1009.91
2022-08-20T08:01:05.276Z,1009.93
2022-08-20T08:02:05.165Z,1009.95
2022-08-20T08:03:05.164Z,1009.89
2022-08-20T08:04:05.143Z,1009.91
2022-08-20T08:05:05.151Z,1009.87
2022-08-20T08:06:05.118Z,1009.91
2022-08-20T08:07:05.108Z,1009.92
2022-08-20T08:08:07.350Z,1009.97
2022-08-20T08:09:05.085Z,1010.00
2022-08-20T08:10:05.077Z,1010.00
2022-08-20T08:11:05.071Z,1009.98
2022-08-20T08:12:05.054Z,1009.98
2022-08-20T08:13:05.042Z,1010.03
2022-08-20T08:14:05.031Z,1010.01
2022-08-20T08:15:05.020Z,1010.06
2022-08-20T08:16:05.009Z,1010.07
2022-08-20T08:17:05.006Z,1010.06
2022-08-20T08:18:04.987Z,1010.07
2022-08-20T08:19:04.975Z,1010.08
2022-08-20T08:20:04.969Z,1010.10
2022-08-20T08:21:04.955Z,1010.08
2022-08-20T08:22:04.951Z,1010.09
2022-08-20T08:23:04.938Z,1010.10
2022-08-20T08:24:04.921Z,1010.11
2022-08-20T08:25:04.911Z,1010.09
2022-08-20T08:26:04.899Z,1010.09
2022-08-20T08:27:04.889Z,1010.10
2022-08-20T08:28:04.879Z,1010.12
2022-08-20T08:29:04.895Z,1010.09
2022-08-20T08:30:04.875Z,1010.13
2022-08-20T08:31:04.844Z,1010.11
2022-08-20T08:32:04.833Z,1010.14
2022-08-20T08:33:04.822Z,1010.14
2022-08-20T08:34:04.811Z,1010.15
2022-08-20T08:35:04.817Z,1010.14
2022-08-20T08:36:04.788Z,1010.16
2022-08-20T08:37:04.779Z,1010.13
2022-08-20T08:38:04.766Z,1010.14
2022-08-20T08:39:04.755Z,1010.17
2022-08-20T08:40:04.813Z,1010.15
2022-08-20T08:41:04.739Z,1010.19
2022-08-20T08:42:04.725Z,1010.16
2022-08-20T08:43:04.719Z,1010.19
2022-08-20T08:44:04.703Z,1010.20
2022-08-20T08:45:04.692Z,1010.19
2022-08-20T08:46:04.678Z,1010.21
2022-08-20T08:47:04.681Z,1010.20
2022-08-20T08:48:04.656Z,1010.20
2022-08-20T08:49:04.645Z,1010.22
2022-08-20T08:50:04.654Z,1010.21
2022-08-20T08:51:04.622Z,1010.18
2022-08-20T08:52:04.618Z,1010.24
2022-08-20T08:53:04.607Z,1010.21
2022-08-20T08:54:06.947Z,1010.24
2022-08-20T08:55:04.579Z,1010.26
2022-08-20T08:56:04.567Z,1010.27
2022-08-20T08:57:04.561Z,1010.27
2022-08-20T08:58:17.381Z,1010.28
2022-08-20T08:59:05.563Z,1010.30
2022-08-20T09:00:05.435Z,1010.30
2022-08-20T09:01:06.973Z,1010.31
2022-08-20T09:02:05.517Z,1010.31
2022-08-20T09:03:04.490Z,1010.33
2022-08-20T09:04:04.479Z,1010.31
2022-08-20T09:05:04.476Z,1010.34
2022-08-20T09:06:04.486Z,1010.36
2022-08-20T09:07:04.446Z,1010.39
2022-08-20T09:08:04.439Z,1010.40
2022-08-20T09:09:04.425Z,1010.37
2022-08-20T09:10:04.416Z,1010.41
2022-08-20T09:11:04.433Z,1010.38
2022-08-20T09:12:04.391Z,1010.41
2022-08-20T09:13:04.404Z,1010.40
2022-08-20T09:14:04.370Z,1010.41
2022-08-20T09:15:04.361Z,1010.40
2022-08-20T09:16:04.367Z,1010.43
2022-08-20T09:17:04.353Z,1010.43
2022-08-20T09:18:04.330Z,1010.45
2022-08-20T09:19:04.315Z,1010.45
2022-08-20T09:20:04.303Z,1010.44
2022-08-20T09:21:04.292Z,1010.45
2022-08-20T09:22:04.292Z,1010.45
2022-08-20T09:23:04.276Z,1010.45
2022-08-20T09:24:04.262Z,1010.51
2022-08-20T09:25:04.247Z,1010.45
2022-08-20T09:26:04.238Z,1010.42
2022-08-20T09:27:04.227Z,1010.41
2022-08-20T09:28:04.215Z,1010.40
2022-08-20T09:29:04.226Z,1010.42
2022-08-20T09:30:04.193Z,1010.41
2022-08-20T09:31:04.468Z,1010.41
2022-08-20T09:32:04.187Z,1010.41
2022-08-20T09:33:04.161Z,1010.45
2022-08-20T09:34:04.148Z,1010.45
2022-08-20T09:35:08.888Z,1010.44
2022-08-20T09:36:05.127Z,1010.47
2022-08-20T09:37:05.117Z,1010.47
2022-08-20T09:38:04.105Z,1010.46
2022-08-20T09:39:04.092Z,1010.46
2022-08-20T09:40:04.188Z,1010.47
2022-08-20T09:41:04.077Z,1010.42
2022-08-20T09:42:04.061Z,1010.45
2022-08-20T09:43:04.049Z,1010.44
2022-08-20T09:44:04.038Z,1010.45
2022-08-20T09:45:04.027Z,1010.42
2022-08-20T09:46:05.022Z,1010.42
2022-08-20T09:47:04.005Z,1010.44
2022-08-20T09:48:03.994Z,1010.44
2022-08-20T09:49:03.982Z,1010.45
2022-08-20T09:50:03.974Z,1010.45
2022-08-20T09:51:03.961Z,1010.46
2022-08-20T09:52:03.956Z,1010.42
2022-08-20T09:53:03.938Z,1010.45
2022-08-20T09:54:03.928Z,1010.47
2022-08-20T09:55:03.922Z,1010.45
2022-08-20T09:56:03.906Z,1010.47
2022-08-20T09:57:03.895Z,1010.43
2022-08-20T09:58:03.891Z,1010.43
2022-08-20T09:59:03.874Z,1010.42
2022-08-20T10:00:03.862Z,1010.40
2022-08-20T10:01:03.851Z,1010.42
2022-08-20T10:02:03.926Z,1010.41
2022-08-20T10:03:03.830Z,1010.41
2022-08-20T10:04:03.823Z,1010.39
2022-08-20T10:05:03.806Z,1010.37
2022-08-20T10:06:03.796Z,1010.40
2022-08-20T10:07:03.784Z,1010.42
2022-08-20T10:08:03.773Z,1010.43
2022-08-20T10:09:03.762Z,1010.39
2022-08-20T10:10:03.767Z,1010.38
2022-08-20T10:11:03.741Z,1010.36
2022-08-20T10:12:03.729Z,1010.41
2022-08-20T10:13:03.720Z,1010.38
2022-08-20T10:14:03.707Z,1010.41
2022-08-20T10:15:03.698Z,1010.39
2022-08-20T10:16:03.706Z,1010.43
2022-08-20T10:17:03.674Z,1010.45
2022-08-20T10:18:03.663Z,1010.47
2022-08-20T10:19:03.653Z,1010.42
2022-08-20T10:20:03.640Z,1010.42
2022-08-20T10:21:03.629Z,1010.48
2022-08-20T10:22:03.626Z,1010.43
2022-08-20T10:23:03.616Z,1010.39
2022-08-20T10:24:03.598Z,1010.42
2022-08-20T10:25:03.586Z,1010.42
2022-08-20T10:26:03.578Z,1010.41
2022-08-20T10:27:03.570Z,1010.39
2022-08-20T10:28:03.559Z,1010.41
2022-08-20T10:29:03.543Z,1010.39
2022-08-20T10:30:03.533Z,1010.39
2022-08-20T10:31:03.519Z,1010.39
2022-08-20T10:32:03.508Z,1010.42
2022-08-20T10:33:03.497Z,1010.36
2022-08-20T10:34:03.492Z,1010.39
2022-08-20T10:35:03.477Z,1010.36
2022-08-20T10:36:03.464Z,1010.39
2022-08-20T10:37:03.454Z,1010.38
2022-08-20T10:38:03.442Z,1010.40
2022-08-20T10:39:03.434Z,1010.42
2022-08-20T10:40:03.523Z,1010.36
2022-08-20T10:41:03.419Z,1010.42
2022-08-20T10:42:03.397Z,1010.42
2022-08-20T10:43:03.387Z,1010.43
2022-08-20T10:44:03.375Z,1010.46
2022-08-20T10:45:03.371Z,1010.40
2022-08-20T10:46:03.379Z,1010.39
2022-08-20T10:47:03.342Z,1010.40
2022-08-20T10:48:03.333Z,1010.47
2022-08-20T10:49:03.324Z,1010.45
2022-08-20T10:50:03.315Z,1010.50
2022-08-20T10:51:03.299Z,1010.46
2022-08-20T10:52:03.297Z,1010.45
2022-08-20T10:53:03.286Z,1010.48
2022-08-20T10:54:03.266Z,1010.50
2022-08-20T10:55:03.255Z,1010.46
2022-08-20T10:56:03.245Z,1010.45
2022-08-20T10:57:03.246Z,1010.44
2022-08-20T10:58:03.232Z,1010.50
2022-08-20T10:59:03.212Z,1010.52
2022-08-20T11:00:03.198Z,1010.54
2022-08-20T11:01:03.188Z,1010.55
2022-08-20T11:02:03.210Z,1010.55
2022-08-20T11:03:03.166Z,1010.56
2022-08-20T11:04:03.178Z,1010.57
2022-08-20T11:05:03.146Z,1010.58
2022-08-20T11:06:03.135Z,1010.53
2022-08-20T11:07:03.123Z,1010.59
2022-08-20T11:08:03.471Z,1010.62
2022-08-20T11:09:03.100Z,1010.59
2022-08-20T11:10:03.095Z,1010.61
2022-08-20T11:11:03.086Z,1010.62
2022-08-20T11:12:03.066Z,1010.64
2022-08-20T11:13:03.066Z,1010.65
2022-08-20T11:14:03.045Z,1010.63
2022-08-20T11:15:03.034Z,1010.65
2022-08-20T11:16:03.031Z,1010.65
2022-08-20T11:17:03.015Z,1010.65
2022-08-20T11:18:03.001Z,1010.62
2022-08-20T11:19:02.997Z,1010.61
2022-08-20T11:20:02.978Z,1010.63
2022-08-20T11:21:02.968Z,1010.65
2022-08-20T11:22:02.986Z,1010.62
2022-08-20T11:23:02.959Z,1010.65
2022-08-20T11:24:03.277Z,1010.63
2022-08-20T11:25:02.926Z,1010.59
2022-08-20T11:26:02.912Z,1010.61
2022-08-20T11:27:02.901Z,1010.62
2022-08-20T11:28:02.897Z,1010.62
2022-08-20T11:29:02.879Z,1010.66
2022-08-20T11:30:02.869Z,1010.63
2022-08-20T11:31:02.857Z,1010.69
2022-08-20T11:32:02.848Z,1010.70
2022-08-20T11:33:02.836Z,1010.69
2022-08-20T11:34:02.830Z,1010.70
2022-08-20T11:35:18.736Z,1010.70
2022-08-20T11:36:03.801Z,1010.69
2022-08-20T11:37:02.793Z,1010.68
2022-08-20T11:38:02.781Z,1010.68
2022-08-20T11:39:02.771Z,1010.67
2022-08-20T11:40:02.801Z,1010.67
2022-08-20T11:41:02.748Z,1010.64
2022-08-20T11:42:02.738Z,1010.66
2022-08-20T11:43:18.508Z,1010.69
2022-08-20T11:44:20.263Z,1010.65
2022-08-20T11:45:03.710Z,1010.68
2022-08-20T11:46:02.693Z,1010.60
2022-08-20T11:47:02.681Z,1010.64
2022-08-20T11:48:02.672Z,1010.67
2022-08-20T11:49:02.663Z,1010.66
2022-08-20T11:50:02.648Z,1010.68
2022-08-20T11:51:02.644Z,1010.71
2022-08-20T11:52:02.626Z,1010.68
2022-08-20T11:53:02.617Z,1010.75
2022-08-20T11:54:02.610Z,1010.71
2022-08-20T11:55:02.610Z,1010.75
2022-08-20T11:56:02.584Z,1010.69
2022-08-20T11:57:02.580Z,1010.74
2022-08-20T11:58:02.563Z,1010.68
2022-08-20T11:59:02.550Z,1010.74
2022-08-20T12:00:02.539Z,1010.73
2022-08-20T12:01:02.528Z,1010.74
2022-08-20T12:02:03.691Z,1010.74
2022-08-20T12:03:02.608Z,1010.71
2022-08-20T12:04:02.496Z,1010.74
2022-08-20T12:05:02.561Z,1010.76